Lynnfield, Massachusetts
Current Conditions -  °F | °C
As of 11:08 PM on Wednesday 26 Nov 2014 (Local Time) from KBVY Reporting Station
Freezing Rain Freezing Rain  
Wind Chill: 21°   Ceiling: 1200
Heat Index: 33°   Visibility: 4mi
Dew Point: 30°   Wind: 22mph
Humidity: 89%   Direction: 10°N
Pressure: 29.66"   Gusts: 32mph
Location:  42.54°N, 71.05°W
Report Text: KBVY 270408Z AUTO 01019G28KT 4SM -FZRA BR OVC012 01/M01 A2966 RMK AO2 PK WND 01028/0407 RAE02FZRAB02 PRESFR P0001 I1001 T00061011
Loading
Personal Weather Stations






























Interactive Weather Map New forecast layout! Learn more

10-Day Weather Forecast

Advertisements
Track Severe Weather on mobile